Turkey, North Carolina
Current Conditions -  °F | °C
As of 3:35 PM on Saturday 20 Dec 2014 (Local Time) from KCTZ Reporting Station
Overcast Overcast  
Wind Chill: 39°   Ceiling: 3800
Heat Index: 42°   Visibility: 7mi
Dew Point: 39°   Wind: 5mph
Humidity: 90%   Direction: 30°NNE
Pressure: 30.25"   Gusts: NA
Location:  34.99°N, 78.18°W
Report Text: KCTZ 202035Z AUTO 03004KT 7SM SCT008 OVC038 06/04 A3025 RMK AO2 T00550040
Loading
Personal Weather Stations






























Interactive Weather Map New forecast layout! Learn more

10-Day Weather Forecast

Advertisements
Track Severe Weather on mobile